Time,TemperatureF,DewpointF,PressureIn,WindDirection,WindDirectionDegrees,WindSpeedMPH,WindSpeedGustMPH,Humidity,HourlyPrecipIn,Conditions,Clouds,dailyrainin,SoftwareType,DateUTC
2013-10-30 00:00:00,64.6,63.4,30.01,WSW,239,0.0,0.0,96,0.00,,,0.31,Wunderground v.1.15,2013-10-30 05:00:00,
2013-10-30 00:06:00,64.7,63.2,30.01,WSW,239,0.0,0.0,95,0.00,,,0.00,Wunderground v.1.15,2013-10-30 05:06:00,
2013-10-30 00:12:00,64.7,63.2,30.01,SW,231,0.0,0.0,95,0.00,,,0.00,Wunderground v.1.15,2013-10-30 05:12:00,
2013-10-30 00:17:00,64.7,63.2,30.01,SW,231,0.0,0.0,95,0.00,,,0.00,Wunderground v.1.15,2013-10-30 05:17:00,
2013-10-30 00:23:00,64.7,63.2,30.01,SW,231,0.0,0.0,95,0.00,,,0.00,Wunderground v.1.15,2013-10-30 05:23:00,
2013-10-30 00:29:00,64.6,63.1,30.01,SW,231,0.0,0.0,95,0.00,,,0.00,Wunderground v.1.15,2013-10-30 05:29:00,
2013-10-30 00:35:00,64.5,63.0,30.01,SW,231,0.0,1.0,95,0.00,,,0.00,Wunderground v.1.15,2013-10-30 05:35:00,
2013-10-30 00:40:00,64.5,63.0,30.01,SW,229,0.0,1.0,95,0.00,,,0.00,Wunderground v.1.15,2013-10-30 05:40:00,
2013-10-30 00:46:00,64.5,63.0,30.01,South,191,0.0,1.0,95,0.00,,,0.00,Wunderground v.1.15,2013-10-30 05:46:00,
2013-10-30 00:52:00,64.3,62.8,30.01,SSW,193,0.0,1.0,95,0.00,,,0.00,Wunderground v.1.15,2013-10-30 05:52:00,
2013-10-30 00:57:00,64.1,62.6,30.00,South,191,0.0,1.0,95,0.00,,,0.00,Wunderground v.1.15,2013-10-30 05:57:00,
2013-10-30 01:03:00,64.1,62.6,30.01,SSW,193,0.0,0.0,95,0.00,,,0.00,Wunderground v.1.15,2013-10-30 06:03:00,
2013-10-30 01:09:00,63.9,62.4,30.00,SSW,193,0.0,0.0,95,0.00,,,0.00,Wunderground v.1.15,2013-10-30 06:09:00,
2013-10-30 01:15:00,64.0,62.5,30.00,SSW,193,0.0,0.0,95,0.00,,,0.00,Wunderground v.1.15,2013-10-30 06:15:00,
2013-10-30 01:20:00,63.8,62.3,30.00,SSW,192,0.0,0.0,95,0.00,,,0.00,Wunderground v.1.15,2013-10-30 06:20:00,
2013-10-30 01:26:00,63.5,62.0,30.00,SSW,192,0.0,0.0,95,0.00,,,0.00,Wunderground v.1.15,2013-10-30 06:26:00,
2013-10-30 01:32:00,63.2,61.7,30.00,SSW,192,0.0,2.0,95,0.00,,,0.00,Wunderground v.1.15,2013-10-30 06:32:00,
2013-10-30 01:38:00,63.2,62.0,30.00,SSW,192,0.0,2.0,96,0.00,,,0.00,Wunderground v.1.15,2013-10-30 06:38:00,
2013-10-30 01:43:00,63.1,61.9,30.00,SSW,193,0.0,2.0,96,0.00,,,0.00,Wunderground v.1.15,2013-10-30 06:43:00,
2013-10-30 01:49:00,63.1,61.9,30.00,SSW,193,0.0,2.0,96,0.00,,,0.00,Wunderground v.1.15,2013-10-30 06:49:00,
2013-10-30 01:55:00,63.0,61.8,30.00,SSW,193,0.0,2.0,96,0.00,,,0.00,Wunderground v.1.15,2013-10-30 06:55:00,
2013-10-30 02:00:00,62.9,61.7,30.00,SSW,193,0.0,0.0,96,0.00,,,0.00,Wunderground v.1.15,2013-10-30 07:00:00,
2013-10-30 02:05:00,62.7,61.5,30.00,SSW,192,0.0,0.0,96,0.00,,,0.00,Wunderground v.1.15,2013-10-30 07:05:00,
2013-10-30 02:11:00,62.4,61.2,30.00,SSW,193,0.0,0.0,96,0.00,,,0.00,Wunderground v.1.15,2013-10-30 07:11:00,
2013-10-30 02:17:00,62.6,61.7,30.00,SSW,193,0.0,0.0,97,0.00,,,0.00,Wunderground v.1.15,2013-10-30 07:17:00,
2013-10-30 02:22:00,62.7,61.8,30.00,SSW,193,0.0,0.0,97,0.00,,,0.00,Wunderground v.1.15,2013-10-30 07:22:00,
2013-10-30 02:28:00,62.7,61.8,30.00,SSW,192,0.0,0.0,97,0.00,,,0.00,Wunderground v.1.15,2013-10-30 07:28:00,
2013-10-30 02:34:00,62.6,61.4,30.00,SSW,193,0.0,0.0,96,0.00,,,0.00,Wunderground v.1.15,2013-10-30 07:34:00,
2013-10-30 02:40:00,62.6,61.7,30.00,SSW,192,0.0,0.0,97,0.00,,,0.00,Wunderground v.1.15,2013-10-30 07:40:00,
2013-10-30 02:45:00,62.8,61.9,29.99,SSW,192,0.0,0.0,97,0.00,,,0.00,Wunderground v.1.15,2013-10-30 07:45:00,
2013-10-30 02:51:00,63.0,62.1,29.99,SSE,153,0.0,0.0,97,0.00,,,0.00,Wunderground v.1.15,2013-10-30 07:51:00,
2013-10-30 02:57:00,62.8,61.9,29.99,SSE,153,0.0,0.0,97,0.00,,,0.00,Wunderground v.1.15,2013-10-30 07:57:00,
2013-10-30 03:02:00,62.4,61.2,29.99,SSE,155,0.0,0.0,96,0.00,,,0.00,Wunderground v.1.15,2013-10-30 08:02:00,
2013-10-30 03:07:00,62.2,61.0,30.00,SSE,155,0.0,0.0,96,0.00,,,0.00,Wunderground v.1.15,2013-10-30 08:07:00,
2013-10-30 03:12:00,62.2,61.3,30.00,SSE,155,0.0,0.0,97,0.00,,,0.00,Wunderground v.1.15,2013-10-30 08:12:00,
2013-10-30 03:18:00,62.6,61.7,29.99,SSE,155,0.0,0.0,97,0.00,,,0.00,Wunderground v.1.15,2013-10-30 08:18:00,
2013-10-30 03:24:00,62.2,61.3,29.99,SSE,153,0.0,0.0,97,0.00,,,0.00,Wunderground v.1.15,2013-10-30 08:24:00,
2013-10-30 03:30:00,62.0,60.8,29.99,SSE,155,0.0,0.0,96,0.00,,,0.00,Wunderground v.1.15,2013-10-30 08:30:00,
2013-10-30 03:36:00,61.7,60.5,29.99,SSE,155,0.0,0.0,96,0.00,,,0.00,Wunderground v.1.15,2013-10-30 08:36:00,
2013-10-30 03:42:00,61.6,60.7,29.99,SSE,155,0.0,0.0,97,0.00,,,0.00,Wunderground v.1.15,2013-10-30 08:42:00,
2013-10-30 03:47:00,61.7,60.8,29.99,SSE,155,0.0,0.0,97,0.00,,,0.00,Wunderground v.1.15,2013-10-30 08:47:00,
2013-10-30 03:53:00,61.6,60.7,29.99,SSE,155,0.0,0.0,97,0.00,,,0.00,Wunderground v.1.15,2013-10-30 08:53:00,
2013-10-30 03:59:00,61.7,60.8,30.00,SSE,155,0.0,0.0,97,0.00,,,0.00,Wunderground v.1.15,2013-10-30 08:59:00,
2013-10-30 04:05:00,62.0,61.1,29.99,SSE,153,0.0,0.0,97,0.00,,,0.00,Wunderground v.1.15,2013-10-30 09:05:00,
2013-10-30 04:11:00,62.2,61.3,29.99,SSE,153,0.0,0.0,97,0.00,,,0.00,Wunderground v.1.15,2013-10-30 09:11:00,
2013-10-30 04:17:00,61.8,60.9,29.99,SSE,153,0.0,0.0,97,0.00,,,0.00,Wunderground v.1.15,2013-10-30 09:17:00,
2013-10-30 04:23:00,61.7,60.8,29.99,SSE,153,0.0,0.0,97,0.00,,,0.00,Wunderground v.1.15,2013-10-30 09:23:00,
2013-10-30 04:28:00,61.5,60.6,29.99,SSE,153,0.0,0.0,97,0.00,,,0.00,Wunderground v.1.15,2013-10-30 09:28:00,
2013-10-30 04:34:00,61.4,60.5,29.99,SSE,153,0.0,0.0,97,0.00,,,0.00,Wunderground v.1.15,2013-10-30 09:34:00,
2013-10-30 04:40:00,61.4,60.5,29.99,SSE,153,0.0,0.0,97,0.00,,,0.00,Wunderground v.1.15,2013-10-30 09:40:00,
2013-10-30 04:46:00,61.4,60.5,29.99,SSE,153,0.0,0.0,97,0.00,,,0.00,Wunderground v.1.15,2013-10-30 09:46:00,
2013-10-30 04:51:00,61.3,60.4,29.99,SSE,153,0.0,0.0,97,0.00,,,0.00,Wunderground v.1.15,2013-10-30 09:51:00,
2013-10-30 04:57:00,61.2,60.3,29.99,SSE,153,0.0,0.0,97,0.00,,,0.00,Wunderground v.1.15,2013-10-30 09:57:00,
2013-10-30 05:03:00,61.1,60.2,29.99,SSE,153,0.0,0.0,97,0.00,,,0.00,Wunderground v.1.15,2013-10-30 10:03:00,
2013-10-30 05:09:00,61.2,60.3,29.99,SSE,153,0.0,0.0,97,0.00,,,0.00,Wunderground v.1.15,2013-10-30 10:09:00,
2013-10-30 05:15:00,61.2,60.3,29.99,SSE,153,0.0,0.0,97,0.00,,,0.00,Wunderground v.1.15,2013-10-30 10:15:00,
2013-10-30 05:21:00,61.3,60.4,30.00,SSE,153,0.0,0.0,97,0.00,,,0.00,Wunderground v.1.15,2013-10-30 10:21:00,
2013-10-30 05:27:00,61.4,60.5,30.00,SSE,153,0.0,0.0,97,0.00,,,0.00,Wunderground v.1.15,2013-10-30 10:27:00,
2013-10-30 05:32:00,61.4,60.5,30.00,SSE,153,0.0,0.0,97,0.00,,,0.00,Wunderground v.1.15,2013-10-30 10:32:00,
2013-10-30 05:38:00,61.4,60.5,30.00,SSE,153,0.0,0.0,97,0.00,,,0.00,Wunderground v.1.15,2013-10-30 10:38:00,
2013-10-30 05:44:00,61.5,60.6,30.00,SSE,153,0.0,0.0,97,0.00,,,0.00,Wunderground v.1.15,2013-10-30 10:44:00,
2013-10-30 05:50:00,61.5,60.6,30.00,SSE,153,0.0,0.0,97,0.00,,,0.00,Wunderground v.1.15,2013-10-30 10:50:00,
2013-10-30 05:56:00,61.4,60.5,30.00,SSE,153,0.0,0.0,97,0.00,,,0.00,Wunderground v.1.15,2013-10-30 10:56:00,
2013-10-30 06:02:00,61.4,60.5,30.00,SSE,153,0.0,0.0,97,0.00,,,0.00,Wunderground v.1.15,2013-10-30 11:02:00,
2013-10-30 06:08:00,61.4,60.5,29.99,SSE,153,0.0,0.0,97,0.00,,,0.00,Wunderground v.1.15,2013-10-30 11:08:00,
2013-10-30 06:14:00,61.4,60.5,29.99,SSE,151,0.0,0.0,97,0.00,,,0.00,Wunderground v.1.15,2013-10-30 11:14:00,
2013-10-30 06:19:00,61.3,60.4,29.99,SSE,150,0.0,0.0,97,0.00,,,0.00,Wunderground v.1.15,2013-10-30 11:19:00,
2013-10-30 06:25:00,61.2,60.3,29.99,SSE,150,0.0,0.0,97,0.00,,,0.00,Wunderground v.1.15,2013-10-30 11:25:00,
2013-10-30 06:31:00,61.1,60.2,29.99,SSE,151,0.0,0.0,97,0.00,,,0.00,Wunderground v.1.15,2013-10-30 11:31:00,
2013-10-30 06:37:00,61.1,60.2,29.99,SSE,150,0.0,0.0,97,0.00,,,0.00,Wunderground v.1.15,2013-10-30 11:37:00,
2013-10-30 06:42:00,61.1,60.2,30.00,SSE,150,0.0,0.0,97,0.00,,,0.00,Wunderground v.1.15,2013-10-30 11:42:00,
2013-10-30 06:48:00,61.0,60.1,30.00,SSE,150,0.0,0.0,97,0.00,,,0.00,Wunderground v.1.15,2013-10-30 11:48:00,
2013-10-30 06:54:00,61.1,60.2,30.00,SSE,150,0.0,0.0,97,0.00,,,0.00,Wunderground v.1.15,2013-10-30 11:54:00,
2013-10-30 07:00:00,61.2,60.3,29.99,SSE,150,0.0,0.0,97,0.00,,,0.00,Wunderground v.1.15,2013-10-30 12:00:00,
2013-10-30 07:06:00,61.2,60.3,30.00,SSE,150,0.0,0.0,97,0.00,,,0.00,Wunderground v.1.15,2013-10-30 12:06:00,
2013-10-30 07:12:00,61.2,60.3,29.99,SSE,150,0.0,0.0,97,0.00,,,0.00,Wunderground v.1.15,2013-10-30 12:12:00,
2013-10-30 07:18:00,61.3,60.4,29.99,SSE,150,0.0,0.0,97,0.00,,,0.00,Wunderground v.1.15,2013-10-30 12:18:00,
2013-10-30 07:23:00,61.3,60.4,29.99,SSE,150,0.0,0.0,97,0.00,,,0.00,Wunderground v.1.15,2013-10-30 12:23:00,
2013-10-30 07:29:00,61.4,60.5,29.99,SSE,150,0.0,0.0,97,0.00,,,0.00,Wunderground v.1.15,2013-10-30 12:29:00,
2013-10-30 07:35:00,61.4,60.5,29.99,SSE,150,0.0,0.0,97,0.00,,,0.00,Wunderground v.1.15,2013-10-30 12:35:00,
2013-10-30 07:41:00,61.4,60.5,29.99,SSE,150,0.0,0.0,97,0.00,,,0.00,Wunderground v.1.15,2013-10-30 12:41:00,
2013-10-30 07:47:00,61.4,60.5,29.99,SSE,151,0.0,0.0,97,0.00,,,0.00,Wunderground v.1.15,2013-10-30 12:47:00,
2013-10-30 07:53:00,61.6,60.7,29.99,SSE,150,0.0,0.0,97,0.00,,,0.00,Wunderground v.1.15,2013-10-30 12:53:00,
2013-10-30 07:59:00,61.7,60.8,29.99,SSE,150,0.0,0.0,97,0.00,,,0.00,Wunderground v.1.15,2013-10-30 12:59:00,
2013-10-30 08:05:00,61.7,60.8,29.99,SSE,150,0.0,0.0,97,0.00,,,0.00,Wunderground v.1.15,2013-10-30 13:05:00,
2013-10-30 08:10:00,62.1,61.2,29.98,ESE,117,0.0,1.0,97,0.00,,,0.00,Wunderground v.1.15,2013-10-30 13:10:00,
2013-10-30 08:16:00,62.3,61.4,29.98,ESE,114,1.0,2.0,97,0.00,,,0.00,Wunderground v.1.15,2013-10-30 13:16:00,
2013-10-30 08:22:00,62.6,61.7,29.98,East,96,1.0,1.0,97,0.00,,,0.00,Wunderground v.1.15,2013-10-30 13:22:00,
2013-10-30 08:28:00,62.7,61.8,29.98,SW,224,0.0,1.0,97,0.00,,,0.00,Wunderground v.1.15,2013-10-30 13:28:00,
2013-10-30 08:33:00,62.7,61.8,29.98,SW,224,0.0,0.0,97,0.00,,,0.00,Wunderground v.1.15,2013-10-30 13:33:00,
2013-10-30 08:39:00,63.2,62.3,29.98,WSW,238,0.0,0.0,97,0.00,,,0.00,Wunderground v.1.15,2013-10-30 13:39:00,
2013-10-30 08:45:00,63.6,63.0,29.99,WSW,247,0.0,1.0,98,0.00,,,0.00,Wunderground v.1.15,2013-10-30 13:45:00,
2013-10-30 08:51:00,64.3,63.7,29.99,West,270,0.0,0.0,98,0.00,,,0.00,Wunderground v.1.15,2013-10-30 13:51:00,
2013-10-30 08:57:00,64.9,64.3,29.99,SW,236,0.0,0.0,98,0.00,,,0.00,Wunderground v.1.15,2013-10-30 13:57:00,
2013-10-30 09:03:00,65.1,64.5,29.99,SE,136,0.0,1.0,98,0.00,,,0.00,Wunderground v.1.15,2013-10-30 14:03:00,
2013-10-30 09:09:00,65.4,64.5,29.99,SW,235,0.0,2.0,97,0.00,,,0.00,Wunderground v.1.15,2013-10-30 14:09:00,
2013-10-30 09:14:00,65.6,64.7,29.99,ESE,115,1.0,2.0,97,0.00,,,0.00,Wunderground v.1.15,2013-10-30 14:14:00,
2013-10-30 09:20:00,65.9,64.4,29.98,ESE,110,1.0,1.0,95,0.00,,,0.00,Wunderground v.1.15,2013-10-30 14:20:00,
2013-10-30 09:26:00,66.2,64.4,29.98,ESE,111,1.0,3.0,94,0.00,,,0.00,Wunderground v.1.15,2013-10-30 14:26:00,
2013-10-30 09:32:00,66.3,64.2,29.98,East,99,1.0,3.0,93,0.00,,,0.00,Wunderground v.1.15,2013-10-30 14:32:00,
2013-10-30 09:37:00,66.5,64.1,29.98,ESE,117,1.0,3.0,92,0.00,,,0.00,Wunderground v.1.15,2013-10-30 14:37:00,
2013-10-30 09:43:00,66.5,64.1,29.98,West,274,0.0,2.0,92,0.00,,,0.00,Wunderground v.1.15,2013-10-30 14:43:00,
2013-10-30 09:49:00,66.5,63.8,29.97,ESE,114,0.0,2.0,91,0.00,,,0.00,Wunderground v.1.15,2013-10-30 14:49:00,
2013-10-30 09:55:00,66.5,63.8,29.98,WSW,240,0.0,2.0,91,0.00,,,0.00,Wunderground v.1.15,2013-10-30 14:55:00,
2013-10-30 10:00:00,66.5,63.8,29.98,SW,228,1.0,1.0,91,0.00,,,0.00,Wunderground v.1.15,2013-10-30 15:00:00,
2013-10-30 10:06:00,66.6,63.9,29.98,SW,225,0.0,1.0,91,0.00,,,0.00,Wunderground v.1.15,2013-10-30 15:06:00,
2013-10-30 10:12:00,66.5,63.5,29.99,WSW,253,0.0,0.0,90,0.00,,,0.00,Wunderground v.1.15,2013-10-30 15:12:00,
2013-10-30 10:17:00,66.4,63.7,29.99,West,264,0.0,0.0,91,0.00,,,0.00,Wunderground v.1.15,2013-10-30 15:17:00,
2013-10-30 10:23:00,66.3,63.6,30.00,WSW,238,0.0,0.0,91,0.00,,,0.00,Wunderground v.1.15,2013-10-30 15:23:00,
2013-10-30 10:29:00,66.3,63.6,30.00,West,262,0.0,2.0,91,0.00,,,0.00,Wunderground v.1.15,2013-10-30 15:29:00,
2013-10-30 10:35:00,66.2,63.5,30.01,WNW,287,1.0,5.0,91,0.83,,,0.04,Wunderground v.1.15,2013-10-30 15:35:00,
2013-10-30 10:40:00,65.9,63.5,30.01,WSW,253,1.0,5.0,92,0.17,,,0.05,Wunderground v.1.15,2013-10-30 15:40:00,
2013-10-30 10:46:00,65.6,63.5,30.01,West,277,2.0,5.0,93,0.65,,,0.09,Wunderground v.1.15,2013-10-30 15:46:00,
2013-10-30 10:52:00,65.4,63.3,30.01,WSW,250,2.0,5.0,93,0.31,,,0.13,Wunderground v.1.15,2013-10-30 15:52:00,
2013-10-30 10:58:00,65.3,63.5,30.01,West,273,3.0,5.0,94,0.10,,,0.14,Wunderground v.1.15,2013-10-30 15:58:00,
2013-10-30 11:03:00,65.2,63.4,30.01,WSW,255,3.0,3.0,94,0.12,,,0.15,Wunderground v.1.15,2013-10-30 16:03:00,
2013-10-30 11:09:00,65.3,63.5,30.01,West,262,3.0,3.0,94,0.24,,,0.18,Wunderground v.1.15,2013-10-30 16:09:00,
2013-10-30 11:15:00,65.3,63.5,30.00,SW,229,1.0,3.0,94,0.36,,,0.23,Wunderground v.1.15,2013-10-30 16:15:00,
2013-10-30 11:20:00,65.1,63.6,30.00,SW,233,0.0,1.0,95,0.15,,,0.24,Wunderground v.1.15,2013-10-30 16:20:00,
2013-10-30 11:26:00,65.0,63.5,30.00,WSW,238,0.0,1.0,95,0.12,,,0.25,Wunderground v.1.15,2013-10-30 16:26:00,
2013-10-30 11:32:00,65.0,63.5,29.99,WSW,238,0.0,2.0,95,0.12,,,0.26,Wunderground v.1.15,2013-10-30 16:32:00,
2013-10-30 11:38:00,65.0,63.5,29.99,WSW,238,0.0,2.0,95,0.07,,,0.27,Wunderground v.1.15,2013-10-30 16:38:00,
2013-10-30 11:43:00,65.0,63.8,29.98,WSW,238,0.0,2.0,96,0.07,,,0.27,Wunderground v.1.15,2013-10-30 16:43:00,
2013-10-30 11:49:00,65.1,63.9,29.98,South,184,0.0,2.0,96,0.05,,,0.27,Wunderground v.1.15,2013-10-30 16:49:00,
2013-10-30 11:55:00,65.2,64.0,29.98,South,184,0.0,2.0,96,0.04,,,0.28,Wunderground v.1.15,2013-10-30 16:55:00,
2013-10-30 12:00:00,65.4,64.2,29.97,South,184,0.0,0.0,96,0.10,,,0.28,Wunderground v.1.15,2013-10-30 17:00:00,
2013-10-30 12:06:00,65.4,64.2,29.97,South,184,0.0,0.0,96,0.16,,,0.32,Wunderground v.1.15,2013-10-30 17:06:00,
2013-10-30 12:11:00,65.3,64.1,29.97,South,184,0.0,0.0,96,0.35,,,0.36,Wunderground v.1.15,2013-10-30 17:11:00,
2013-10-30 12:17:00,65.4,64.2,29.97,SE,130,0.0,1.0,96,0.11,,,0.37,Wunderground v.1.15,2013-10-30 17:17:00,
2013-10-30 12:23:00,65.4,64.2,29.97,East,101,0.0,0.0,96,0.05,,,0.37,Wunderground v.1.15,2013-10-30 17:23:00,
2013-10-30 12:29:00,65.4,64.2,29.96,East,101,0.0,0.0,96,0.32,,,0.39,Wunderground v.1.15,2013-10-30 17:29:00,
2013-10-30 12:35:00,65.4,64.2,29.95,East,98,0.0,8.0,96,0.13,,,0.41,Wunderground v.1.15,2013-10-30 17:35:00,
2013-10-30 12:41:00,65.4,64.2,29.95,SSW,201,0.0,8.0,96,0.11,,,0.42,Wunderground v.1.15,2013-10-30 17:41:00,
2013-10-30 12:47:00,65.4,64.2,29.95,SW,231,0.0,8.0,96,0.05,,,0.42,Wunderground v.1.15,2013-10-30 17:47:00,
2013-10-30 12:52:00,65.4,64.2,29.95,SW,231,0.0,8.0,96,0.04,,,0.43,Wunderground v.1.15,2013-10-30 17:52:00,
2013-10-30 12:58:00,65.4,64.2,29.96,SW,231,0.0,8.0,96,0.04,,,0.43,Wunderground v.1.15,2013-10-30 17:58:00,
2013-10-30 13:04:00,65.2,64.0,29.95,WSW,241,0.0,0.0,96,0.06,,,0.44,Wunderground v.1.15,2013-10-30 18:04:00,
2013-10-30 13:10:00,65.2,64.0,29.95,WSW,242,0.0,0.0,96,0.19,,,0.46,Wunderground v.1.15,2013-10-30 18:10:00,
2013-10-30 13:15:00,65.1,63.9,29.94,WSW,243,0.0,0.0,96,0.19,,,0.48,Wunderground v.1.15,2013-10-30 18:15:00,
2013-10-30 13:21:00,65.1,63.9,29.94,WSW,243,0.0,0.0,96,0.21,,,0.50,Wunderground v.1.15,2013-10-30 18:21:00,
2013-10-30 13:27:00,65.0,63.8,29.93,WSW,243,0.0,0.0,96,0.26,,,0.53,Wunderground v.1.15,2013-10-30 18:27:00,
2013-10-30 13:33:00,65.0,63.8,29.92,NNE,18,0.0,2.0,96,0.16,,,0.54,Wunderground v.1.15,2013-10-30 18:33:00,
2013-10-30 13:39:00,65.0,63.8,29.92,NNW,342,0.0,2.0,96,0.10,,,0.55,Wunderground v.1.15,2013-10-30 18:39:00,
2013-10-30 13:45:00,65.0,64.1,29.92,NNW,341,1.0,2.0,97,0.07,,,0.56,Wunderground v.1.15,2013-10-30 18:45:00,
2013-10-30 13:51:00,65.1,64.2,29.91,NNW,332,1.0,2.0,97,0.06,,,0.56,Wunderground v.1.15,2013-10-30 18:51:00,
2013-10-30 13:56:00,65.1,64.2,29.90,NNW,331,1.0,2.0,97,0.05,,,0.57,Wunderground v.1.15,2013-10-30 18:56:00,
2013-10-30 14:02:00,65.1,64.2,29.90,NNW,333,0.0,0.0,97,0.05,,,0.57,Wunderground v.1.15,2013-10-30 19:02:00,
2013-10-30 14:08:00,65.2,64.3,29.90,NNW,333,0.0,0.0,97,0.04,,,0.57,Wunderground v.1.15,2013-10-30 19:08:00,
2013-10-30 14:14:00,65.2,64.3,29.91,NNW,331,0.0,1.0,97,0.00,,,0.57,Wunderground v.1.15,2013-10-30 19:14:00,
2013-10-30 14:19:00,65.2,64.3,29.92,NW,319,0.0,1.0,97,0.00,,,0.58,Wunderground v.1.15,2013-10-30 19:19:00,
2013-10-30 14:25:00,65.2,64.3,29.91,WNW,285,0.0,2.0,97,0.10,,,0.59,Wunderground v.1.15,2013-10-30 19:25:00,
2013-10-30 14:31:00,65.3,64.4,29.91,West,260,0.0,2.0,97,0.39,,,0.61,Wunderground v.1.15,2013-10-30 19:31:00,
2013-10-30 14:37:00,65.3,64.4,29.91,West,262,0.0,2.0,97,0.29,,,0.64,Wunderground v.1.15,2013-10-30 19:37:00,
2013-10-30 14:43:00,65.3,64.4,29.90,SE,129,0.0,2.0,97,0.48,,,0.68,Wunderground v.1.15,2013-10-30 19:43:00,
2013-10-30 14:49:00,65.2,64.3,29.90,ESE,113,1.0,2.0,97,0.34,,,0.73,Wunderground v.1.15,2013-10-30 19:49:00,
2013-10-30 14:55:00,65.2,64.3,29.90,ESE,111,1.0,2.0,97,0.26,,,0.75,Wunderground v.1.15,2013-10-30 19:55:00,
2013-10-30 15:00:00,65.1,64.2,29.90,ESE,111,0.0,0.0,97,0.25,,,0.78,Wunderground v.1.15,2013-10-30 20:00:00,
2013-10-30 15:06:00,65.1,64.2,29.90,SE,130,0.0,1.0,97,0.25,,,0.81,Wunderground v.1.15,2013-10-30 20:06:00,
2013-10-30 15:12:00,65.1,64.2,29.88,East,89,1.0,3.0,97,0.19,,,0.82,Wunderground v.1.15,2013-10-30 20:12:00,
2013-10-30 15:18:00,65.1,64.2,29.88,SE,129,2.0,3.0,97,0.16,,,0.84,Wunderground v.1.15,2013-10-30 20:18:00,
2013-10-30 15:23:00,65.0,64.1,29.88,ESE,107,2.0,2.0,97,0.21,,,0.86,Wunderground v.1.15,2013-10-30 20:23:00,
2013-10-30 15:29:00,65.0,64.1,29.88,ENE,65,1.0,2.0,97,0.11,,,0.87,Wunderground v.1.15,2013-10-30 20:29:00,
2013-10-30 15:35:00,65.0,64.1,29.89,ENE,59,1.0,2.0,97,0.11,,,0.88,Wunderground v.1.15,2013-10-30 20:35:00,
2013-10-30 15:41:00,65.0,64.1,29.89,ENE,59,0.0,2.0,97,0.21,,,0.90,Wunderground v.1.15,2013-10-30 20:41:00,
2013-10-30 15:47:00,65.0,64.1,29.89,ENE,60,0.0,2.0,97,0.29,,,0.93,Wunderground v.1.15,2013-10-30 20:47:00,
2013-10-30 15:53:00,65.0,64.1,29.89,ENE,59,0.0,2.0,97,0.48,,,0.96,Wunderground v.1.15,2013-10-30 20:53:00,
2013-10-30 15:59:00,65.0,64.1,29.88,ENE,59,0.0,2.0,97,0.30,,,0.99,Wunderground v.1.15,2013-10-30 20:59:00,
2013-10-30 16:04:00,64.9,64.0,29.88,ENE,60,0.0,0.0,97,0.40,,,1.03,Wunderground v.1.15,2013-10-30 21:04:00,
2013-10-30 16:10:00,64.9,64.0,29.88,ENE,71,0.0,0.0,97,0.28,,,1.06,Wunderground v.1.15,2013-10-30 21:10:00,
2013-10-30 16:16:00,64.8,63.9,29.88,ENE,71,0.0,0.0,97,0.18,,,1.07,Wunderground v.1.15,2013-10-30 21:16:00,
2013-10-30 16:22:00,64.8,63.9,29.88,East,79,0.0,0.0,97,0.24,,,1.09,Wunderground v.1.15,2013-10-30 21:22:00,
2013-10-30 16:27:00,64.8,63.9,29.88,East,79,0.0,1.0,97,0.28,,,1.12,Wunderground v.1.15,2013-10-30 21:27:00,
2013-10-30 16:33:00,64.8,63.9,29.88,East,95,0.0,6.0,97,0.16,,,1.14,Wunderground v.1.15,2013-10-30 21:33:00,
2013-10-30 16:39:00,64.8,63.9,29.88,East,101,0.0,6.0,97,0.24,,,1.16,Wunderground v.1.15,2013-10-30 21:39:00,
2013-10-30 16:45:00,64.7,63.8,29.89,East,101,0.0,6.0,97,0.12,,,1.17,Wunderground v.1.15,2013-10-30 21:45:00,
2013-10-30 16:51:00,64.7,63.8,29.90,West,277,1.0,6.0,97,0.29,,,1.20,Wunderground v.1.15,2013-10-30 21:51:00,
2013-10-30 16:57:00,64.7,63.8,29.89,SE,124,1.0,6.0,97,0.61,,,1.26,Wunderground v.1.15,2013-10-30 21:57:00,
2013-10-30 17:03:00,64.7,63.8,29.88,SE,128,1.0,2.0,97,0.45,,,1.31,Wunderground v.1.15,2013-10-30 22:03:00,
2013-10-30 17:08:00,64.7,63.8,29.89,WNW,296,1.0,2.0,97,0.32,,,1.34,Wunderground v.1.15,2013-10-30 22:08:00,
2013-10-30 17:14:00,64.7,63.8,29.89,WSW,256,1.0,1.0,97,1.57,,,1.43,Wunderground v.1.15,2013-10-30 22:14:00,
2013-10-30 17:20:00,64.6,63.7,29.89,ESE,117,1.0,1.0,97,0.71,,,1.52,Wunderground v.1.15,2013-10-30 22:20:00,
2013-10-30 17:26:00,64.7,63.8,29.88,ESE,117,0.0,1.0,97,0.24,,,1.55,Wunderground v.1.15,2013-10-30 22:26:00,
2013-10-30 17:31:00,64.6,63.7,29.88,East,89,0.0,2.0,97,0.18,,,1.56,Wunderground v.1.15,2013-10-30 22:31:00,
2013-10-30 17:37:00,64.2,63.3,29.88,WNW,291,0.0,2.0,97,0.07,,,1.56,Wunderground v.1.15,2013-10-30 22:37:00,
2013-10-30 17:43:00,64.1,63.2,29.88,WNW,293,0.0,2.0,97,0.04,,,1.56,Wunderground v.1.15,2013-10-30 22:43:00,
2013-10-30 17:49:00,63.8,62.9,29.88,WSW,255,0.0,2.0,97,0.00,,,1.56,Wunderground v.1.15,2013-10-30 22:49:00,
2013-10-30 17:55:00,63.7,62.8,29.87,WSW,256,0.0,2.0,97,0.00,,,1.57,Wunderground v.1.15,2013-10-30 22:55:00,
2013-10-30 18:00:00,63.6,62.7,29.87,WSW,257,0.0,0.0,97,0.00,,,1.57,Wunderground v.1.15,2013-10-30 23:00:00,
2013-10-30 18:06:00,63.4,62.5,29.87,NW,311,0.0,0.0,97,0.00,,,1.57,Wunderground v.1.15,2013-10-30 23:06:00,
2013-10-30 18:12:00,63.3,62.4,29.87,NW,310,0.0,0.0,97,0.00,,,1.57,Wunderground v.1.15,2013-10-30 23:12:00,
2013-10-30 18:18:00,63.2,62.3,29.86,ESE,110,0.0,1.0,97,0.00,,,1.57,Wunderground v.1.15,2013-10-30 23:18:00,
2013-10-30 18:23:00,63.2,62.3,29.86,SW,222,0.0,1.0,97,0.00,,,1.57,Wunderground v.1.15,2013-10-30 23:23:00,
2013-10-30 18:29:00,63.1,62.2,29.85,SW,226,0.0,1.0,97,0.00,,,1.58,Wunderground v.1.15,2013-10-30 23:29:00,
2013-10-30 18:35:00,63.1,62.2,29.86,South,177,0.0,2.0,97,0.00,,,1.58,Wunderground v.1.15,2013-10-30 23:35:00,
2013-10-30 18:41:00,63.1,62.2,29.85,WSW,243,0.0,2.0,97,0.00,,,1.58,Wunderground v.1.15,2013-10-30 23:41:00,
2013-10-30 18:47:00,63.1,62.2,29.85,South,173,0.0,2.0,97,0.00,,,1.58,Wunderground v.1.15,2013-10-30 23:47:00,
2013-10-30 18:53:00,63.1,62.2,29.85,WNW,289,0.0,2.0,97,0.00,,,1.58,Wunderground v.1.15,2013-10-30 23:53:00,
2013-10-30 18:59:00,63.2,62.3,29.85,SW,229,1.0,2.0,97,0.00,,,1.58,Wunderground v.1.15,2013-10-30 23:59:00,
2013-10-30 19:05:00,63.2,62.3,29.86,SW,236,1.0,1.0,97,0.00,,,1.59,Wunderground v.1.15,2013-10-31 00:05:00,
2013-10-30 19:11:00,63.2,62.0,29.86,SW,236,0.0,0.0,96,0.00,,,1.59,Wunderground v.1.15,2013-10-31 00:11:00,
2013-10-30 19:16:00,63.1,61.9,29.86,WSW,237,0.0,0.0,96,0.00,,,1.59,Wunderground v.1.15,2013-10-31 00:16:00,
2013-10-30 19:22:00,63.0,61.8,29.86,SE,128,0.0,1.0,96,0.00,,,1.59,Wunderground v.1.15,2013-10-31 00:22:00,
2013-10-30 19:28:00,63.0,61.8,29.85,East,86,0.0,1.0,96,0.00,,,1.59,Wunderground v.1.15,2013-10-31 00:28:00,
2013-10-30 19:34:00,62.9,61.7,29.85,ESE,121,0.0,2.0,96,0.00,,,1.59,Wunderground v.1.15,2013-10-31 00:34:00,
2013-10-30 19:39:00,62.9,61.7,29.85,ESE,110,1.0,3.0,96,0.00,,,1.59,Wunderground v.1.15,2013-10-31 00:39:00,
2013-10-30 19:45:00,62.9,61.7,29.85,WSW,242,0.0,2.0,96,0.00,,,1.59,Wunderground v.1.15,2013-10-31 00:45:00,
2013-10-30 19:51:00,62.9,61.7,29.86,SW,217,1.0,2.0,96,0.00,,,1.59,Wunderground v.1.15,2013-10-31 00:51:00,
2013-10-30 19:57:00,62.9,61.4,29.86,SE,141,1.0,2.0,95,0.00,,,1.59,Wunderground v.1.15,2013-10-31 00:57:00,
2013-10-30 20:03:00,63.0,61.5,29.85,ESE,114,1.0,3.0,95,0.00,,,1.60,Wunderground v.1.15,2013-10-31 01:03:00,
2013-10-30 20:09:00,63.0,61.2,29.85,SE,144,2.0,3.0,94,0.00,,,1.60,Wunderground v.1.15,2013-10-31 01:09:00,
2013-10-30 20:15:00,63.0,61.2,29.85,East,79,1.0,2.0,94,0.00,,,1.60,Wunderground v.1.15,2013-10-31 01:15:00,
2013-10-30 20:20:00,62.9,61.1,29.84,South,174,1.0,1.0,94,0.00,,,1.60,Wunderground v.1.15,2013-10-31 01:20:00,
2013-10-30 20:26:00,62.8,61.0,29.84,SE,124,1.0,1.0,94,0.00,,,1.60,Wunderground v.1.15,2013-10-31 01:26:00,
2013-10-30 20:32:00,62.8,61.0,29.84,ESE,103,1.0,3.0,94,0.00,,,1.60,Wunderground v.1.15,2013-10-31 01:32:00,
2013-10-30 20:38:00,62.7,60.9,29.84,ESE,103,1.0,3.0,94,0.00,,,1.60,Wunderground v.1.15,2013-10-31 01:38:00,
2013-10-30 20:44:00,62.5,61.0,29.84,ESE,112,0.0,3.0,95,0.00,,,1.60,Wunderground v.1.15,2013-10-31 01:44:00,
2013-10-30 20:50:00,62.5,61.0,29.83,ESE,106,1.0,3.0,95,0.00,,,1.60,Wunderground v.1.15,2013-10-31 01:50:00,
2013-10-30 20:56:00,62.4,60.9,29.83,SSE,166,0.0,3.0,95,0.00,,,1.60,Wunderground v.1.15,2013-10-31 01:56:00,
2013-10-30 21:03:00,62.5,61.0,29.82,ESE,121,1.0,2.0,95,0.00,,,1.60,Wunderground v.1.15,2013-10-31 02:03:00,
2013-10-30 21:09:00,62.5,60.7,29.83,East,79,1.0,2.0,94,0.00,,,1.60,Wunderground v.1.15,2013-10-31 02:09:00,
2013-10-30 21:14:00,62.5,60.7,29.82,ESE,117,0.0,2.0,94,0.00,,,1.60,Wunderground v.1.15,2013-10-31 02:14:00,
2013-10-30 21:20:00,62.5,60.7,29.82,West,281,1.0,1.0,94,0.00,,,1.60,Wunderground v.1.15,2013-10-31 02:20:00,
2013-10-30 21:26:00,62.4,60.7,29.82,SE,142,0.0,1.0,94,0.00,,,1.60,Wunderground v.1.15,2013-10-31 02:26:00,
2013-10-30 21:32:00,62.4,60.7,29.82,WNW,295,0.0,5.0,94,0.00,,,1.60,Wunderground v.1.15,2013-10-31 02:32:00,
2013-10-30 21:37:00,62.2,60.8,29.82,WNW,290,0.0,5.0,95,0.00,,,1.60,Wunderground v.1.15,2013-10-31 02:37:00,
2013-10-30 21:43:00,62.2,60.8,29.82,West,260,0.0,5.0,95,0.00,,,1.60,Wunderground v.1.15,2013-10-31 02:43:00,
2013-10-30 21:49:00,62.1,60.7,29.82,SSW,203,0.0,5.0,95,0.00,,,1.60,Wunderground v.1.15,2013-10-31 02:49:00,
2013-10-30 21:55:00,62.2,60.8,29.82,SE,129,0.0,5.0,95,0.00,,,1.60,Wunderground v.1.15,2013-10-31 02:55:00,
2013-10-30 22:00:00,62.2,60.8,29.82,WSW,239,0.0,1.0,95,0.00,,,1.60,Wunderground v.1.15,2013-10-31 03:00:00,
2013-10-30 22:06:00,62.1,60.7,29.82,West,274,0.0,1.0,95,0.00,,,1.60,Wunderground v.1.15,2013-10-31 03:06:00,
2013-10-30 22:12:00,62.1,60.7,29.82,West,276,0.0,0.0,95,0.00,,,1.60,Wunderground v.1.15,2013-10-31 03:12:00,
2013-10-30 22:16:00,62.1,60.7,29.81,West,274,0.0,2.0,95,0.00,,,1.60,Wunderground v.1.15,2013-10-31 03:16:00,
2013-10-30 22:21:00,62.2,60.8,29.81,SSW,208,0.0,0.0,95,0.00,,,1.60,Wunderground v.1.15,2013-10-31 03:21:00,
2013-10-30 22:27:00,62.2,60.5,29.81,WNW,288,0.0,2.0,94,0.00,,,1.60,Wunderground v.1.15,2013-10-31 03:27:00,
2013-10-30 22:33:00,62.2,60.5,29.81,WNW,294,1.0,4.0,94,0.00,,,1.60,Wunderground v.1.15,2013-10-31 03:33:00,
2013-10-30 22:39:00,62.3,60.6,29.80,SE,124,1.0,4.0,94,0.00,,,1.60,Wunderground v.1.15,2013-10-31 03:39:00,
2013-10-30 22:45:00,62.3,60.6,29.80,WSW,247,1.0,4.0,94,0.00,,,1.60,Wunderground v.1.15,2013-10-31 03:45:00,
2013-10-30 22:51:00,62.3,60.6,29.79,WSW,243,1.0,4.0,94,0.00,,,1.60,Wunderground v.1.15,2013-10-31 03:51:00,
2013-10-30 22:57:00,62.4,60.7,29.79,SW,214,1.0,4.0,94,0.00,,,1.60,Wunderground v.1.15,2013-10-31 03:57:00,
2013-10-30 23:01:00,62.6,60.5,29.80,WNW,291,2.0,3.0,93,0.00,,,1.60,Wunderground v.1.15,2013-10-31 04:01:00,
2013-10-30 23:02:00,62.7,60.6,29.80,WSW,247,2.0,3.0,93,0.00,,,1.60,Wunderground v.1.15,2013-10-31 04:02:00,
2013-10-30 23:06:00,62.8,60.7,29.80,North,11,3.0,6.0,93,0.00,,,1.60,Wunderground v.1.15,2013-10-31 04:06:00,
2013-10-30 23:08:00,62.8,60.4,29.79,SSW,204,2.0,6.0,92,0.00,,,1.60,Wunderground v.1.15,2013-10-31 04:08:00,
2013-10-30 23:14:00,62.9,60.5,29.80,WSW,243,2.0,2.0,92,0.00,,,1.60,Wunderground v.1.15,2013-10-31 04:14:00,
2013-10-30 23:16:00,62.9,60.5,29.80,WNW,287,2.0,2.0,92,0.00,,,1.60,Wunderground v.1.15,2013-10-31 04:16:00,
2013-10-30 23:22:00,63.0,60.6,29.80,WNW,294,1.0,6.0,92,0.00,,,1.60,Wunderground v.1.15,2013-10-31 04:22:00,
2013-10-30 23:23:00,63.0,60.6,29.80,SW,218,2.0,6.0,92,0.00,,,1.60,Wunderground v.1.15,2013-10-31 04:23:00,
2013-10-30 23:29:00,63.1,60.7,29.80,West,278,2.0,6.0,92,0.00,,,1.60,Wunderground v.1.15,2013-10-31 04:29:00,
2013-10-30 23:35:00,63.1,60.7,29.79,South,181,2.0,5.0,92,0.00,,,1.60,Wunderground v.1.15,2013-10-31 04:35:00,
2013-10-30 23:41:00,63.0,60.6,29.78,SSW,195,1.0,5.0,92,0.00,,,1.60,Wunderground v.1.15,2013-10-31 04:41:00,
2013-10-30 23:46:00,63.0,60.6,29.78,West,269,0.0,5.0,92,0.00,,,1.60,Wunderground v.1.15,2013-10-31 04:46:00,
2013-10-30 23:52:00,63.0,60.6,29.78,SW,230,0.0,5.0,92,0.00,,,1.60,Wunderground v.1.15,2013-10-31 04:52:00,
2013-10-30 23:58:00,63.0,60.6,29.78,WSW,243,0.0,5.0,92,0.00,,,1.60,Wunderground v.1.15,2013-10-31 04:58:00,